Time;durP1;ratioP1;P1;durP2;ratioP2;P2;SDS_P1;SDS_P2;PMS_P1;PMS_P2;Temp;Humidity;BMP_temperature;BMP_pressure;BME280_temperature;BME280_humidity;BME280_pressure;Samples;Min_cycle;Max_cycle;Signal;HPM_P1;HPM_P2
2021/06/24 00:01:01;;;;;;;6.53;5.97;;;17.30;99.90;;;;;;5007475;28;20300;-67
2021/06/24 00:03:31;;;;;;;6.82;6.22;;;17.30;99.90;;;;;;5009358;28;20109;-65
2021/06/24 00:05:59;;;;;;;7.60;6.93;;;17.30;99.90;;;;;;5007080;28;20543;-67
2021/06/24 00:08:27;;;;;;;7.32;6.57;;;17.30;99.90;;;;;;5009327;28;20073;-66
2021/06/24 00:10:56;;;;;;;8.27;7.45;;;17.30;99.90;;;;;;5009863;28;20120;-67
2021/06/24 00:13:24;;;;;;;6.85;6.15;;;17.30;99.90;;;;;;5010133;28;20447;-68
2021/06/24 00:15:52;;;;;;;6.28;5.68;;;17.30;99.90;;;;;;5008106;28;20060;-66
2021/06/24 00:18:19;;;;;;;6.47;5.90;;;17.40;99.90;;;;;;5009465;28;20140;-66
2021/06/24 00:20:49;;;;;;;6.88;6.18;;;17.40;99.90;;;;;;5009733;28;20570;-66
2021/06/24 00:23:16;;;;;;;9.43;5.28;;;17.40;99.90;;;;;;5008429;28;20175;-65
2021/06/24 00:25:44;;;;;;;8.52;6.70;;;17.30;99.90;;;;;;5009662;28;20085;-66
2021/06/24 00:28:15;;;;;;;8.68;7.03;;;17.40;99.90;;;;;;5007897;28;20106;-67
2021/06/24 00:30:47;;;;;;;7.50;6.80;;;17.30;99.90;;;;;;5009553;28;20186;-68
2021/06/24 00:33:15;;;;;;;6.25;5.75;;;17.30;99.90;;;;;;5009824;28;20123;-67
2021/06/24 00:35:42;;;;;;;8.70;7.57;;;17.30;99.90;;;;;;5008722;28;20056;-66
2021/06/24 00:38:10;;;;;;;7.75;6.95;;;17.30;99.90;;;;;;5008071;28;20050;-67
2021/06/24 00:40:38;;;;;;;7.43;6.78;;;17.30;99.90;;;;;;5010189;28;20168;-65
2021/06/24 00:43:06;;;;;;;7.05;6.35;;;17.30;99.90;;;;;;5009673;28;22187;-67
2021/06/24 00:45:35;;;;;;;6.22;5.63;;;17.30;99.90;;;;;;5007922;28;20134;-66
2021/06/24 00:48:04;;;;;;;6.70;6.05;;;17.30;99.90;;;;;;5007637;28;20073;-65
2021/06/24 00:50:31;;;;;;;6.88;6.18;;;17.30;99.90;;;;;;5010149;28;20081;-68
2021/06/24 00:52:59;;;;;;;6.47;5.88;;;17.40;99.90;;;;;;5022716;28;20053;-65
2021/06/24 00:58:29;;;;;;;6.80;6.22;;;17.40;99.90;;;;;;5007471;28;20053;-66
2021/06/24 01:00:58;;;;;;;6.82;6.22;;;17.40;99.90;;;;;;5009832;28;20070;-66
2021/06/24 01:03:27;;;;;;;6.63;6.03;;;17.40;99.90;;;;;;5009444;28;20077;-65
2021/06/24 01:05:54;;;;;;;7.15;6.55;;;17.30;99.90;;;;;;5023073;28;20558;-67
2021/06/24 01:08:28;;;;;;;7.28;6.57;;;17.40;99.90;;;;;;5007224;28;20879;-65
2021/06/24 01:11:03;;;;;;;7.80;6.95;;;17.40;99.90;;;;;;5025056;28;20061;-68
2021/06/24 01:13:30;;;;;;;6.25;5.65;;;17.40;99.90;;;;;;5009866;28;20128;-67
2021/06/24 01:15:57;;;;;;;7.15;6.55;;;17.40;99.90;;;;;;5007802;28;20059;-65
2021/06/24 01:18:25;;;;;;;6.55;5.93;;;17.30;99.90;;;;;;5008677;28;20050;-66
2021/06/24 01:20:53;;;;;;;6.00;5.50;;;17.40;99.90;;;;;;5023982;28;20068;-65
2021/06/24 01:23:21;;;;;;;6.70;6.10;;;17.40;99.90;;;;;;5021906;28;20855;-66
2021/06/24 01:25:48;;;;;;;6.70;6.10;;;17.40;99.90;;;;;;5004010;28;20049;-67
2021/06/24 01:28:17;;;;;;;8.02;7.40;;;17.40;99.90;;;;;;5007076;28;20072;-64
2021/06/24 01:30:44;;;;;;;7.78;6.57;;;17.40;99.90;;;;;;5001961;28;20045;-66
2021/06/24 01:33:14;;;;;;;7.55;6.85;;;17.40;99.90;;;;;;5008310;28;20067;-67
2021/06/24 01:35:41;;;;;;;7.53;6.82;;;17.40;99.90;;;;;;5005416;28;20053;-65
2021/06/24 01:38:10;;;;;;;7.07;6.38;;;17.40;99.90;;;;;;5006370;28;20052;-65
2021/06/24 01:40:50;;;;;;;7.25;6.65;;;17.40;99.90;;;;;;5008160;28;20053;-66
2021/06/24 01:43:17;;;;;;;7.38;6.72;;;17.40;99.90;;;;;;5009881;28;20061;-66
2021/06/24 01:45:53;;;;;;;7.05;6.43;;;17.30;99.90;;;;;;5009001;28;20053;-65
2021/06/24 01:48:21;;;;;;;7.85;7.05;;;17.30;99.90;;;;;;5006052;28;20050;-67
2021/06/24 01:50:49;;;;;;;8.27;6.68;;;17.30;99.90;;;;;;5008534;28;20060;-67
2021/06/24 01:53:16;;;;;;;7.03;6.43;;;17.20;99.90;;;;;;5022288;28;20045;-67
2021/06/24 01:55:44;;;;;;;8.02;6.82;;;17.20;99.90;;;;;;5006271;28;20045;-65
2021/06/24 01:58:17;;;;;;;8.02;7.25;;;17.10;99.90;;;;;;5005753;28;20107;-66
2021/06/24 02:01:04;;;;;;;9.10;7.72;;;17.10;99.90;;;;;;5007236;28;20049;-68
2021/06/24 02:03:38;;;;;;;7.35;6.75;;;17.00;99.90;;;;;;5005989;28;20072;-66
2021/06/24 02:06:07;;;;;;;7.40;6.78;;;17.00;99.90;;;;;;5006970;28;20065;-66
2021/06/24 02:08:36;;;;;;;7.88;6.68;;;16.90;99.90;;;;;;5021307;28;20045;-68
2021/06/24 02:11:07;;;;;;;9.15;8.05;;;16.90;99.90;;;;;;5006444;28;20450;-65
2021/06/24 02:13:38;;;;;;;7.25;6.03;;;16.80;99.90;;;;;;5006468;28;20111;-64
2021/06/24 02:16:07;;;;;;;7.88;7.10;;;16.80;99.90;;;;;;5006977;28;20053;-65
2021/06/24 02:18:35;;;;;;;8.05;7.28;;;16.80;99.90;;;;;;5021359;28;20041;-65
2021/06/24 02:21:09;;;;;;;10.52;7.80;;;16.70;99.90;;;;;;5007047;28;21779;-64
2021/06/24 02:24:03;;;;;;;7.15;6.60;;;16.70;99.90;;;;;;5006059;28;20049;-66
2021/06/24 02:26:39;;;;;;;7.50;6.82;;;16.70;99.90;;;;;;5022739;28;20046;-67
2021/06/24 02:29:25;;;;;;;7.60;6.90;;;16.70;99.90;;;;;;5006817;28;20076;-67
2021/06/24 02:31:53;;;;;;;7.97;7.18;;;16.70;99.90;;;;;;5006147;28;20519;-66
2021/06/24 02:34:45;;;;;;;8.65;7.85;;;16.70;99.90;;;;;;5006679;28;20380;-68
2021/06/24 02:37:25;;;;;;;7.13;6.53;;;16.70;99.90;;;;;;5020220;28;20503;-66
2021/06/24 02:40:28;;;;;;;8.93;8.13;;;16.70;99.90;;;;;;5011243;28;20050;-65
2021/06/24 02:42:56;;;;;;;7.82;7.03;;;16.80;99.90;;;;;;5022017;28;20089;-66
2021/06/24 02:45:26;;;;;;;8.47;7.63;;;16.80;99.90;;;;;;5023065;28;20141;-66
2021/06/24 02:47:53;;;;;;;7.97;7.28;;;16.80;99.90;;;;;;5018589;28;20072;-67
2021/06/24 02:50:22;;;;;;;8.40;7.63;;;16.90;99.90;;;;;;5009529;28;20138;-67
2021/06/24 02:52:54;;;;;;;10.15;8.20;;;16.90;99.90;;;;;;5006815;28;20049;-66
2021/06/24 02:55:21;;;;;;;9.65;8.73;;;16.90;99.90;;;;;;5024640;28;20049;-67
2021/06/24 02:57:52;;;;;;;8.05;7.35;;;16.90;99.90;;;;;;5005093;28;20168;-67
2021/06/24 03:00:37;;;;;;;6.97;6.40;;;17.00;99.90;;;;;;5021719;28;20419;-68
2021/06/24 03:03:27;;;;;;;7.35;6.75;;;17.00;99.90;;;;;;5024971;28;20555;-67
2021/06/24 03:06:14;;;;;;;8.85;8.05;;;17.00;99.90;;;;;;5007873;28;20057;-68
2021/06/24 03:08:42;;;;;;;9.30;8.40;;;17.00;99.90;;;;;;5009475;28;20054;-65
2021/06/24 03:11:11;;;;;;;11.98;10.77;;;17.00;99.90;;;;;;5005039;28;20115;-65
2021/06/24 03:13:47;;;;;;;8.30;7.25;;;17.00;99.90;;;;;;5007859;28;21589;-64
2021/06/24 03:16:16;;;;;;;9.45;8.55;;;17.10;99.90;;;;;;5004586;28;20045;-67
2021/06/24 03:18:45;;;;;;;9.05;8.13;;;17.10;99.90;;;;;;5011115;28;20058;-67
2021/06/24 03:21:13;;;;;;;8.23;7.53;;;17.10;99.90;;;;;;5011222;28;20396;-68
2021/06/24 03:23:40;;;;;;;11.75;10.48;;;17.10;99.90;;;;;;5027786;28;20055;-65
2021/06/24 03:26:07;;;;;;;11.90;10.70;;;17.10;99.90;;;;;;5010613;28;22106;-64
2021/06/24 03:28:34;;;;;;;9.98;9.05;;;17.10;99.90;;;;;;5013639;28;20111;-67
2021/06/24 03:31:13;;;;;;;9.35;8.15;;;17.10;99.90;;;;;;5008117;28;21224;-65
2021/06/24 03:33:40;;;;;;;11.27;9.90;;;17.10;99.90;;;;;;5013478;28;20821;-65
2021/06/24 03:36:09;;;;;;;11.48;9.48;;;17.10;99.90;;;;;;5008924;28;20135;-67
2021/06/24 03:38:38;;;;;;;9.50;8.63;;;17.10;99.90;;;;;;5011495;28;20080;-66
2021/06/24 03:41:05;;;;;;;9.13;8.32;;;17.10;99.90;;;;;;5026855;28;20053;-68
2021/06/24 03:43:32;;;;;;;8.10;7.40;;;17.10;99.90;;;;;;5013022;28;20053;-67
2021/06/24 03:45:59;;;;;;;8.75;7.95;;;17.10;99.90;;;;;;5009593;28;20045;-66
2021/06/24 03:48:32;;;;;;;9.23;7.85;;;17.00;99.90;;;;;;5027859;28;20060;-66
2021/06/24 03:51:11;;;;;;;10.48;9.52;;;17.00;99.90;;;;;;5006236;28;20057;-67
2021/06/24 03:53:38;;;;;;;7.82;7.03;;;17.00;99.90;;;;;;5027596;28;20053;-66
2021/06/24 03:56:06;;;;;;;9.45;8.55;;;17.00;99.90;;;;;;5010263;28;20859;-66
2021/06/24 03:58:44;;;;;;;10.35;9.25;;;17.00;99.90;;;;;;5009735;28;20049;-65
2021/06/24 04:01:12;;;;;;;12.70;8.00;;;17.00;99.90;;;;;;5011941;28;20169;-65
2021/06/24 04:03:40;;;;;;;8.50;7.70;;;17.00;99.90;;;;;;5010354;28;20127;-66
2021/06/24 04:06:10;;;;;;;8.05;7.18;;;17.00;99.90;;;;;;5023952;28;20128;-67
2021/06/24 04:08:38;;;;;;;8.43;7.55;;;17.00;99.90;;;;;;5027474;28;20046;-67
2021/06/24 04:11:22;;;;;;;8.35;7.55;;;17.00;99.90;;;;;;5010135;28;20049;-67
2021/06/24 04:13:56;;;;;;;9.38;7.78;;;17.00;99.90;;;;;;5023588;28;20049;-67
2021/06/24 04:16:55;;;;;;;7.95;7.15;;;17.00;99.90;;;;;;5011237;28;20775;-67
2021/06/24 04:19:22;;;;;;;8.18;7.38;;;17.00;99.90;;;;;;5009795;28;20038;-65
2021/06/24 04:21:52;;;;;;;7.72;6.80;;;17.00;99.90;;;;;;5009639;28;20299;-66
2021/06/24 04:24:19;;;;;;;12.50;6.80;;;17.00;99.90;;;;;;5009293;28;20092;-64
2021/06/24 04:26:47;;;;;;;6.05;5.32;;;17.00;99.90;;;;;;5026023;28;20046;-65
2021/06/24 04:29:18;;;;;;;6.45;5.55;;;17.00;99.90;;;;;;5009228;28;20045;-66
2021/06/24 04:31:47;;;;;;;5.90;5.35;;;17.10;99.90;;;;;;5009865;28;20043;-67
2021/06/24 04:34:14;;;;;;;14.73;6.28;;;17.20;99.90;;;;;;5025462;28;20045;-68
2021/06/24 04:36:52;;;;;;;6.88;6.28;;;17.20;99.90;;;;;;5025859;28;20188;-66
2021/06/24 04:39:24;;;;;;;11.43;6.55;;;17.30;99.90;;;;;;5025762;28;20045;-66
2021/06/24 04:42:08;;;;;;;6.88;6.25;;;17.40;99.90;;;;;;5027001;28;20202;-67
2021/06/24 04:44:44;;;;;;;9.05;8.15;;;17.50;99.90;;;;;;5009328;28;20045;-67
2021/06/24 04:47:12;;;;;;;8.40;7.05;;;17.60;99.90;;;;;;5011558;28;20167;-66
2021/06/24 04:49:39;;;;;;;7.32;6.63;;;17.60;99.90;;;;;;5009214;28;20686;-66
2021/06/24 04:52:12;;;;;;;8.70;6.40;;;17.70;99.90;;;;;;5008152;28;20609;-68
2021/06/24 04:54:58;;;;;;;14.18;8.13;;;17.70;99.90;;;;;;5024751;28;20053;-66
2021/06/24 04:57:24;;;;;;;8.25;6.63;;;17.70;99.90;;;;;;5009947;28;20042;-67
2021/06/24 05:00:11;;;;;;;7.30;6.57;;;17.80;99.90;;;;;;5007686;28;20049;-66
2021/06/24 05:02:56;;;;;;;7.07;6.38;;;17.80;99.90;;;;;;5009132;28;20056;-65
2021/06/24 05:05:43;;;;;;;8.52;7.72;;;17.90;99.90;;;;;;5009279;28;20057;-65
2021/06/24 05:08:18;;;;;;;7.53;6.82;;;17.80;99.90;;;;;;5006815;28;20164;-66
2021/06/24 05:10:45;;;;;;;6.70;6.10;;;17.80;99.90;;;;;;5009179;28;20196;-64
2021/06/24 05:13:13;;;;;;;11.00;7.47;;;17.90;99.90;;;;;;5008674;28;20053;-67
2021/06/24 05:15:45;;;;;;;6.22;5.72;;;17.90;99.90;;;;;;5010304;28;20072;-66
2021/06/24 05:18:14;;;;;;;7.28;6.50;;;17.90;99.90;;;;;;5007132;28;20408;-67
2021/06/24 05:20:44;;;;;;;6.35;5.75;;;17.80;99.90;;;;;;5009522;28;20604;-68
2021/06/24 05:23:13;;;;;;;6.90;5.85;;;17.90;99.90;;;;;;5009407;28;20104;-65
2021/06/24 05:25:41;;;;;;;8.98;6.53;;;17.90;99.90;;;;;;5009970;28;20057;-68
2021/06/24 05:28:08;;;;;;;7.60;6.28;;;18.00;99.90;;;;;;5006732;28;20045;-66
2021/06/24 05:30:36;;;;;;;6.20;5.60;;;17.90;99.90;;;;;;5010475;28;20111;-67
2021/06/24 05:33:03;;;;;;;6.75;6.15;;;18.00;99.90;;;;;;5007907;28;20168;-65
2021/06/24 05:35:30;;;;;;;5.18;4.75;;;18.00;99.90;;;;;;5010170;28;20103;-66
2021/06/24 05:37:58;;;;;;;7.03;5.10;;;18.10;99.90;;;;;;5006811;28;20057;-68
2021/06/24 05:40:25;;;;;;;5.72;5.13;;;18.10;99.90;;;;;;5009461;28;20059;-65
2021/06/24 05:42:52;;;;;;;5.18;4.72;;;18.20;99.90;;;;;;5007035;28;20220;-66
2021/06/24 05:45:25;;;;;;;6.53;4.60;;;18.20;99.90;;;;;;5009216;28;20069;-65
2021/06/24 05:47:55;;;;;;;5.93;5.43;;;18.20;99.90;;;;;;5006792;28;20057;-66
2021/06/24 05:50:23;;;;;;;8.10;6.07;;;18.20;99.90;;;;;;5008892;28;20103;-66
2021/06/24 05:52:53;;;;;;;5.95;5.20;;;18.20;99.90;;;;;;5008784;28;20618;-67
2021/06/24 05:58:12;;;;;;;6.87;6.27;;;18.20;99.90;;;;;;5006327;28;20125;-67
2021/06/24 06:00:39;;;;;;;7.07;5.93;;;18.20;99.90;;;;;;5009228;28;20372;-65
2021/06/24 06:03:06;;;;;;;8.00;5.60;;;18.30;99.90;;;;;;5008180;28;20216;-66
2021/06/24 06:05:33;;;;;;;7.32;6.22;;;18.30;99.90;;;;;;5009131;28;20092;-68
2021/06/24 06:08:05;;;;;;;7.97;5.43;;;18.40;99.90;;;;;;5005056;28;20068;-65
2021/06/24 06:10:45;;;;;;;4.40;4.10;;;18.40;99.90;;;;;;2435961;28;10004137;-67
2021/06/24 06:13:12;;;;;;;5.78;5.28;;;18.40;99.90;;;;;;3967488;28;10002298;-67
2021/06/24 06:15:42;;;;;;;5.32;4.85;;;18.30;99.90;;;;;;5007611;28;20107;-66
2021/06/24 06:18:20;;;;;;;6.40;5.80;;;18.30;99.90;;;;;;5006375;28;20498;-67
2021/06/24 06:20:48;;;;;;;4.88;4.50;;;18.40;99.90;;;;;;5008141;28;20049;-68
2021/06/24 06:23:17;;;;;;;6.75;5.00;;;18.40;99.90;;;;;;5006357;28;20053;-65
2021/06/24 06:25:45;;;;;;;5.97;5.57;;;18.40;99.90;;;;;;5008994;28;20507;-67
2021/06/24 06:28:13;;;;;;;4.50;4.20;;;18.40;99.90;;;;;;5005323;28;20104;-67
2021/06/24 06:30:46;;;;;;;5.75;4.95;;;18.30;99.90;;;;;;5007481;28;20163;-68
2021/06/24 06:33:14;;;;;;;5.10;4.57;;;18.30;99.90;;;;;;5008159;28;20088;-65
2021/06/24 06:35:41;;;;;;;6.75;5.95;;;18.30;99.90;;;;;;5009151;28;20847;-66
2021/06/24 06:38:08;;;;;;;6.22;4.85;;;18.30;99.90;;;;;;5004726;28;20064;-67
2021/06/24 06:40:35;;;;;;;5.22;4.82;;;18.30;99.90;;;;;;5009123;28;20042;-66
2021/06/24 06:43:02;;;;;;;5.95;5.03;;;18.30;99.90;;;;;;5008875;28;20076;-64
2021/06/24 06:45:31;;;;;;;8.65;5.32;;;18.30;99.90;;;;;;5006649;28;20101;-67
2021/06/24 06:47:59;;;;;;;6.55;5.28;;;18.30;99.90;;;;;;5006393;28;20042;-67
2021/06/24 06:50:27;;;;;;;5.75;5.25;;;18.30;99.90;;;;;;5007864;28;20049;-65
2021/06/24 06:52:54;;;;;;;6.47;5.80;;;18.30;99.90;;;;;;5009397;28;20135;-65
2021/06/24 06:55:21;;;;;;;5.13;4.60;;;18.40;99.90;;;;;;5010947;28;20127;-65
2021/06/24 06:57:48;;;;;;;6.30;5.68;;;18.50;99.90;;;;;;5011096;28;20052;-67
2021/06/24 07:00:16;;;;;;;7.53;5.45;;;18.60;99.90;;;;;;5012533;28;20072;-65
2021/06/24 07:02:43;;;;;;;6.05;5.45;;;18.60;99.90;;;;;;5010208;28;20061;-66
2021/06/24 07:05:10;;;;;;;5.82;5.32;;;18.60;99.90;;;;;;5011158;28;20132;-66
2021/06/24 07:07:37;;;;;;;6.68;5.97;;;18.60;99.90;;;;;;5011159;28;20046;-67
2021/06/24 07:10:05;;;;;;;5.57;5.05;;;18.60;99.90;;;;;;5006648;28;20095;-66
2021/06/24 07:12:34;;;;;;;;;;;18.60;99.90;;;;;;5012597;28;20037;-66
2021/06/24 07:15:02;;;;;;;8.82;5.20;;;18.70;99.90;;;;;;5010104;28;20322;-68
2021/06/24 07:17:29;;;;;;;8.13;5.40;;;18.80;99.90;;;;;;5009031;28;20045;-67
2021/06/24 07:19:56;;;;;;;5.20;4.70;;;18.80;99.90;;;;;;5008739;28;20081;-68
2021/06/24 07:22:23;;;;;;;5.60;5.20;;;18.90;99.90;;;;;;5010589;28;20137;-66
2021/06/24 07:24:51;;;;;;;7.63;6.10;;;19.00;99.90;;;;;;5008270;28;20053;-67
2021/06/24 07:27:18;;;;;;;6.50;5.18;;;19.00;99.90;;;;;;5005394;28;20415;-65
2021/06/24 07:29:45;;;;;;;5.30;4.80;;;19.10;99.90;;;;;;5007180;28;20119;-66
2021/06/24 07:32:12;;;;;;;5.47;4.30;;;19.10;99.90;;;;;;5008980;28;20069;-67
2021/06/24 07:34:38;;;;;;;6.07;5.57;;;19.00;99.90;;;;;;4999506;28;20071;-65
2021/06/24 07:37:05;;;;;;;4.38;4.00;;;19.00;99.90;;;;;;5007751;28;20049;-64
2021/06/24 07:39:32;;;;;;;5.20;4.78;;;19.00;99.90;;;;;;5002657;28;20183;-68
2021/06/24 07:42:00;;;;;;;5.03;4.63;;;19.10;99.90;;;;;;5008711;28;20049;-67
2021/06/24 07:44:26;;;;;;;6.35;5.75;;;19.10;99.90;;;;;;5009645;28;20431;-66
2021/06/24 07:46:53;;;;;;;5.80;5.30;;;19.10;99.90;;;;;;5011199;28;20053;-65
2021/06/24 07:49:20;;;;;;;5.45;4.93;;;19.20;99.90;;;;;;5008618;28;20049;-65
2021/06/24 07:51:47;;;;;;;5.28;4.80;;;19.10;99.90;;;;;;5008947;28;20045;-68
2021/06/24 07:54:15;;;;;;;5.57;5.05;;;19.20;99.90;;;;;;5009812;28;20054;-67
2021/06/24 07:56:42;;;;;;;4.55;4.15;;;19.30;99.90;;;;;;5009049;28;20054;-66
2021/06/24 07:59:14;;;;;;;4.22;3.88;;;19.20;99.90;;;;;;5008630;28;20145;-67
2021/06/24 08:01:41;;;;;;;5.22;4.65;;;19.30;99.90;;;;;;5009314;28;20052;-67
2021/06/24 08:04:10;;;;;;;5.55;4.85;;;19.30;99.90;;;;;;5006563;28;20045;-66
2021/06/24 08:06:37;;;;;;;4.82;4.32;;;19.40;99.90;;;;;;5008292;28;20148;-68
2021/06/24 08:09:06;;;;;;;6.15;4.38;;;19.40;99.90;;;;;;5008771;28;21811;-66
2021/06/24 08:11:34;;;;;;;5.10;4.22;;;19.50;99.90;;;;;;5010049;28;20433;-67
2021/06/24 08:14:01;;;;;;;5.57;5.07;;;19.40;99.90;;;;;;5005028;28;20037;-67
2021/06/24 08:16:30;;;;;;;6.72;4.13;;;19.50;99.90;;;;;;5010297;28;20195;-66
2021/06/24 08:18:59;;;;;;;6.40;4.88;;;19.50;99.90;;;;;;5010308;28;20076;-65
2021/06/24 08:21:26;;;;;;;6.55;5.40;;;19.50;99.90;;;;;;5007998;28;20050;-67
2021/06/24 08:23:52;;;;;;;4.95;4.47;;;19.50;99.90;;;;;;5009595;28;20044;-66
2021/06/24 08:26:20;;;;;;;5.63;4.53;;;19.60;99.90;;;;;;5011154;28;20068;-67
2021/06/24 08:28:47;;;;;;;6.70;4.15;;;19.50;99.90;;;;;;5011490;28;20115;-66
2021/06/24 08:31:14;;;;;;;5.93;5.35;;;19.50;99.90;;;;;;5011664;28;20447;-66
2021/06/24 08:33:46;;;;;;;5.32;4.88;;;19.50;99.90;;;;;;5011547;28;20052;-65
2021/06/24 08:36:13;;;;;;;7.15;4.68;;;19.50;99.90;;;;;;5010072;28;20057;-65
2021/06/24 08:38:40;;;;;;;6.55;4.93;;;19.50;99.90;;;;;;5010990;28;20057;-67
2021/06/24 08:41:08;;;;;;;4.97;4.47;;;19.70;99.90;;;;;;5011576;28;20052;-67
2021/06/24 08:43:35;;;;;;;5.60;4.45;;;19.80;99.90;;;;;;5009870;28;20143;-67
2021/06/24 08:46:04;;;;;;;5.47;4.95;;;19.80;99.90;;;;;;5008220;28;20085;-65
2021/06/24 08:48:36;;;;;;;5.03;4.60;;;19.70;99.90;;;;;;5008381;28;20650;-67
2021/06/24 08:51:06;;;;;;;7.55;4.30;;;19.60;99.90;;;;;;5009006;28;20100;-66
2021/06/24 08:53:34;;;;;;;6.28;5.40;;;19.70;99.90;;;;;;5005500;28;21080;-65
2021/06/24 08:56:01;;;;;;;5.93;5.43;;;19.60;99.90;;;;;;5006724;28;20080;-68
2021/06/24 08:58:28;;;;;;;6.53;5.88;;;19.70;99.90;;;;;;5005552;28;20723;-68
2021/06/24 09:00:56;;;;;;;6.07;5.47;;;19.80;99.90;;;;;;5007877;28;20076;-67
2021/06/24 09:03:28;;;;;;;8.98;6.03;;;19.80;99.90;;;;;;5022218;28;20756;-67
2021/06/24 09:06:06;;;;;;;5.50;4.97;;;19.80;99.90;;;;;;5005644;28;20514;-65
2021/06/24 09:08:39;;;;;;;6.43;5.82;;;19.80;99.90;;;;;;5009480;28;20839;-65
2021/06/24 09:11:22;;;;;;;6.05;5.55;;;19.70;99.90;;;;;;5007824;28;20053;-65
2021/06/24 09:14:00;;;;;;;9.60;5.05;;;19.90;99.90;;;;;;5006546;28;20179;-66
2021/06/24 09:16:41;;;;;;;5.68;5.18;;;19.90;99.90;;;;;;5007934;28;20045;-67
2021/06/24 09:19:13;;;;;;;5.38;4.88;;;20.10;99.90;;;;;;5007515;28;20045;-66
2021/06/24 09:21:48;;;;;;;8.15;5.32;;;20.10;99.90;;;;;;5008573;28;20283;-66
2021/06/24 09:24:34;;;;;;;5.18;4.68;;;20.20;99.90;;;;;;5004095;28;20112;-66
2021/06/24 09:27:06;;;;;;;8.05;5.25;;;20.20;99.90;;;;;;5008179;28;20045;-68
2021/06/24 09:29:33;;;;;;;4.93;4.43;;;20.30;99.90;;;;;;5009253;28;20107;-68
2021/06/24 09:32:00;;;;;;;6.00;5.43;;;20.30;99.90;;;;;;5005853;28;20514;-68
2021/06/24 09:34:28;;;;;;;7.95;4.57;;;20.20;99.90;;;;;;5009039;28;20056;-68
2021/06/24 09:37:00;;;;;;;6.45;5.95;;;20.10;99.90;;;;;;5009895;28;20152;-67
2021/06/24 09:39:39;;;;;;;4.80;4.40;;;20.10;99.90;;;;;;5009746;28;20041;-65
2021/06/24 09:42:13;;;;;;;5.80;5.30;;;20.10;99.90;;;;;;5008247;28;20053;-66
2021/06/24 09:44:46;;;;;;;5.32;4.93;;;20.10;99.90;;;;;;5010164;28;20111;-66
2021/06/24 09:47:20;;;;;;;4.78;4.20;;;20.30;99.90;;;;;;5008915;28;20126;-65
2021/06/24 09:50:03;;;;;;;5.18;4.68;;;20.50;99.90;;;;;;5007418;28;20081;-66
2021/06/24 09:52:32;;;;;;;5.07;4.63;;;20.70;99.90;;;;;;5007709;28;20095;-66
2021/06/24 09:55:07;;;;;;;7.18;4.60;;;20.70;99.90;;;;;;5007594;28;20053;-66
2021/06/24 09:57:36;;;;;;;5.05;4.55;;;20.80;99.90;;;;;;5005267;28;20066;-68
2021/06/24 10:00:27;;;;;;;4.65;4.28;;;20.80;99.90;;;;;;5005217;28;20042;-65
2021/06/24 10:03:08;;;;;;;5.10;4.40;;;20.80;99.90;;;;;;5004569;28;20062;-68
2021/06/24 10:05:36;;;;;;;5.05;4.65;;;20.90;99.90;;;;;;5008003;28;20057;-65
2021/06/24 10:08:04;;;;;;;4.47;4.18;;;21.00;99.90;;;;;;5004766;28;20045;-67
2021/06/24 10:10:32;;;;;;;5.78;4.30;;;20.90;99.90;;;;;;5007610;28;20053;-67
2021/06/24 10:12:59;;;;;;;6.05;5.32;;;20.80;99.90;;;;;;5006589;28;20056;-66
2021/06/24 10:15:28;;;;;;;4.85;4.45;;;20.70;99.90;;;;;;5008811;28;20131;-66
2021/06/24 10:17:56;;;;;;;5.30;4.55;;;21.00;99.90;;;;;;5005028;28;20050;-65
2021/06/24 10:20:28;;;;;;;8.95;4.20;;;21.00;99.90;;;;;;5008533;28;20800;-67
2021/06/24 10:23:04;;;;;;;3.78;3.47;;;21.20;99.90;;;;;;5007096;28;20057;-66
2021/06/24 10:25:32;;;;;;;4.20;3.90;;;21.30;99.90;;;;;;5009064;28;20471;-67
2021/06/24 10:28:00;;;;;;;5.10;4.60;;;21.30;99.90;;;;;;5003452;28;20038;-68
2021/06/24 10:30:27;;;;;;;4.50;4.13;;;21.20;99.90;;;;;;5007725;28;20041;-66
2021/06/24 10:33:00;;;;;;;5.28;4.03;;;21.30;99.90;;;;;;5023217;28;20053;-66
2021/06/24 10:35:32;;;;;;;3.35;3.10;;;21.40;99.90;;;;;;5007860;28;20140;-66
2021/06/24 10:38:01;;;;;;;5.15;4.65;;;21.50;99.90;;;;;;5005211;28;20491;-68
2021/06/24 10:40:35;;;;;;;6.95;3.47;;;21.60;99.90;;;;;;5009308;28;20053;-65
2021/06/24 10:43:08;;;;;;;4.22;3.58;;;21.50;99.90;;;;;;5007066;28;20057;-67
2021/06/24 10:45:36;;;;;;;4.32;3.92;;;21.40;99.90;;;;;;5009342;28;20555;-66
2021/06/24 10:48:23;;;;;;;4.47;3.63;;;21.40;99.90;;;;;;5006795;28;20049;-66
2021/06/24 10:51:11;;;;;;;4.57;4.10;;;21.50;99.90;;;;;;5007565;28;20403;-66
2021/06/24 10:53:50;;;;;;;4.78;4.38;;;21.50;99.90;;;;;;5006840;28;20046;-66
2021/06/24 10:56:44;;;;;;;4.50;4.10;;;21.50;99.90;;;;;;5006041;28;20053;-66
2021/06/24 10:59:29;;;;;;;5.68;4.13;;;21.70;99.90;;;;;;5005687;28;20065;-65
2021/06/24 11:02:07;;;;;;;6.47;4.65;;;21.50;99.90;;;;;;5002868;28;20050;-66
2021/06/24 11:04:40;;;;;;;4.13;3.63;;;21.60;99.90;;;;;;5007740;28;20057;-65
2021/06/24 11:07:22;;;;;;;4.70;4.30;;;21.60;99.90;;;;;;5004531;28;20103;-67
2021/06/24 11:10:19;;;;;;;5.75;4.80;;;21.60;99.90;;;;;;5006000;28;20053;-67
2021/06/24 11:13:04;;;;;;;5.40;4.60;;;21.60;99.90;;;;;;5006894;28;20049;-67
2021/06/24 11:15:49;;;;;;;7.00;4.35;;;21.80;99.90;;;;;;5007068;28;20062;-67
2021/06/24 11:18:32;;;;;;;5.05;4.55;;;21.90;99.90;;;;;;5005317;28;20534;-67
2021/06/24 11:21:01;;;;;;;5.10;4.57;;;22.10;99.90;;;;;;5005941;28;20053;-70
2021/06/24 11:23:36;;;;;;;6.80;4.03;;;21.90;99.90;;;;;;5006703;28;20107;-66
2021/06/24 11:26:19;;;;;;;4.88;4.35;;;21.90;99.90;;;;;;5004146;28;20857;-66
2021/06/24 11:31:38;;;;;;;5.87;5.00;;;22.20;99.90;;;;;;5004819;28;20779;-67
2021/06/24 11:34:20;;;;;;;5.80;4.35;;;22.30;99.90;;;;;;5006901;28;20290;-65
2021/06/24 11:36:48;;;;;;;5.28;4.80;;;22.20;99.90;;;;;;5021208;28;20870;-65
2021/06/24 11:39:33;;;;;;;4.53;4.18;;;22.00;99.90;;;;;;5008743;28;20453;-68
2021/06/24 11:42:08;;;;;;;7.82;4.38;;;22.00;99.90;;;;;;5009314;28;20064;-66
2021/06/24 11:44:43;;;;;;;5.97;4.88;;;22.00;99.90;;;;;;5012311;28;20053;-65
2021/06/24 11:47:12;;;;;;;4.70;4.30;;;22.00;99.90;;;;;;5010361;28;20057;-68
2021/06/24 12:04:17;;;;;;;4.65;4.25;;;22.10;99.90;;;;;;5007263;28;20142;-67
2021/06/24 12:07:00;;;;;;;4.20;3.78;;;21.80;99.90;;;;;;5009766;28;20143;-65
2021/06/24 12:09:57;;;;;;;4.95;4.10;;;21.50;99.90;;;;;;5007959;28;20477;-67
2021/06/24 12:12:26;;;;;;;8.07;5.47;;;21.30;99.90;;;;;;5012613;28;20107;-68
2021/06/24 12:14:56;;;;;;;8.40;5.88;;;21.10;99.90;;;;;;5010298;28;20578;-65
2021/06/24 12:17:31;;;;;;;8.85;5.30;;;20.90;99.90;;;;;;5010019;28;20061;-66
2021/06/24 12:19:59;;;;;;;7.53;4.78;;;21.00;99.90;;;;;;5008274;28;20060;-67
2021/06/24 12:22:34;;;;;;;6.40;5.30;;;20.90;99.90;;;;;;5010060;28;20082;-65
2021/06/24 12:25:20;;;;;;;5.88;5.38;;;20.80;99.90;;;;;;5007591;28;20614;-66
2021/06/24 12:27:50;;;;;;;5.40;4.50;;;20.80;99.90;;;;;;5007883;28;20056;-67
2021/06/24 12:30:25;;;;;;;6.40;5.70;;;20.90;99.90;;;;;;5007679;28;20140;-65
2021/06/24 12:32:58;;;;;;;4.85;4.45;;;21.00;99.90;;;;;;5011148;28;20057;-68
2021/06/24 12:35:32;;;;;;;5.95;5.40;;;21.00;99.90;;;;;;5008302;28;20064;-67
2021/06/24 12:38:05;;;;;;;6.03;5.45;;;20.90;99.90;;;;;;5004663;28;20049;-67
2021/06/24 12:40:38;;;;;;;5.65;4.60;;;21.00;99.90;;;;;;4993722;28;20163;-65
2021/06/24 12:43:07;;;;;;;5.00;4.57;;;21.20;99.90;;;;;;5002378;28;20053;-67
2021/06/24 12:45:50;;;;;;;6.20;5.60;;;21.50;99.90;;;;;;5010310;28;20092;-66
2021/06/24 12:48:37;;;;;;;6.88;4.95;;;21.80;99.90;;;;;;5008326;28;20132;-66
2021/06/24 12:51:04;;;;;;;5.00;4.55;;;21.90;99.90;;;;;;5008758;28;20790;-66
2021/06/24 12:53:44;;;;;;;5.82;4.82;;;21.90;99.90;;;;;;5006352;28;20053;-67
2021/06/24 12:56:27;;;;;;;;;;;21.90;99.90;;;;;;5009613;28;20053;-67
2021/06/24 12:59:07;;;;;;;5.28;3.97;;;22.00;99.90;;;;;;5021791;28;19929;-65
2021/06/24 13:01:38;;;;;;;5.43;4.93;;;22.00;99.90;;;;;;5008831;28;20807;-66
2021/06/24 13:04:10;;;;;;;5.85;4.32;;;22.10;99.90;;;;;;5006129;28;20061;-65
2021/06/24 13:06:43;;;;;;;6.88;4.50;;;22.20;99.90;;;;;;5008390;28;20041;-66
2021/06/24 13:09:18;;;;;;;4.28;3.88;;;22.20;99.90;;;;;;5007630;28;20119;-67
2021/06/24 13:11:55;;;;;;;4.85;4.32;;;22.20;99.90;;;;;;5007069;28;20069;-67
2021/06/24 13:14:27;;;;;;;6.78;4.70;;;22.30;99.90;;;;;;5007653;28;21109;-67
2021/06/24 13:16:57;;;;;;;5.38;4.57;;;22.30;99.90;;;;;;5008735;28;20129;-66
2021/06/24 13:19:33;;;;;;;4.82;4.10;;;22.40;99.90;;;;;;5007481;28;21626;-64
2021/06/24 13:22:13;;;;;;;4.32;3.92;;;22.50;99.90;;;;;;5004487;28;20054;-65
2021/06/24 13:24:44;;;;;;;5.38;3.80;;;22.40;99.90;;;;;;5010631;28;20594;-67
2021/06/24 13:27:13;;;;;;;5.82;3.67;;;22.40;99.90;;;;;;5009791;28;20041;-65
2021/06/24 13:30:07;;;;;;;4.03;3.43;;;22.50;99.90;;;;;;5007983;28;20531;-67
2021/06/24 13:32:40;;;;;;;4.03;3.72;;;22.60;99.90;;;;;;5007192;28;20077;-64